Time;durP1;ratioP1;P1;durP2;ratioP2;P2;SDS_P1;SDS_P2;PMS_P1;PMS_P2;Temp;Humidity;BMP_temperature;BMP_pressure;BME280_temperature;BME280_humidity;BME280_pressure;Samples;Min_cycle;Max_cycle;Signal;HPM_P1;HPM_P2
2021/09/10 00:01:12;;;;;;;10.30;9.35;;;;;;;23.43;49.10;95363.81;4990364;23;20046;-68
2021/09/10 00:03:38;;;;;;;11.50;10.60;;;;;;;23.29;49.12;95351.75;4989501;28;20054;-67
2021/09/10 00:06:03;;;;;;;10.52;9.73;;;;;;;23.28;49.58;95371.09;4989227;28;20034;-68
2021/09/10 00:08:28;;;;;;;11.52;10.73;;;;;;;23.29;49.55;95373.47;4988880;28;20164;-68
2021/09/10 00:10:54;;;;;;;11.38;10.48;;;;;;;23.29;49.30;95370.75;4989001;28;20045;-69
2021/09/10 00:13:19;;;;;;;11.63;10.63;;;;;;;23.20;49.81;95374.94;4991118;28;20035;-68
2021/09/10 00:15:45;;;;;;;13.02;10.75;;;;;;;23.14;50.06;95369.09;4989181;28;20484;-69
2021/09/10 00:18:10;;;;;;;11.38;10.32;;;;;;;23.02;50.46;95363.97;4989329;28;20043;-72
2021/09/10 00:20:36;;;;;;;11.63;10.63;;;;;;;23.19;50.06;95357.13;4988350;28;20050;-68
2021/09/10 00:23:01;;;;;;;12.00;10.77;;;;;;;23.22;49.74;95373.41;4988946;28;20030;-67
2021/09/10 00:25:26;;;;;;;11.98;10.98;;;;;;;23.21;50.14;95365.66;4991259;28;20026;-68
2021/09/10 00:27:52;;;;;;;12.80;11.70;;;;;;;23.15;50.12;95372.59;4991071;28;20035;-68
2021/09/10 00:30:17;;;;;;;12.50;11.50;;;;;;;23.19;49.95;95362.53;4991859;28;20085;-68
2021/09/10 00:32:43;;;;;;;13.02;12.10;;;;;;;23.16;49.86;95360.56;4993518;28;20089;-68
2021/09/10 00:35:09;;;;;;;13.70;12.60;;;;;;;23.14;50.13;95357.47;4993038;28;20038;-68
2021/09/10 00:37:34;;;;;;;12.13;11.23;;;;;;;23.03;49.94;95346.53;4994496;28;20475;-70
2021/09/10 00:40:00;;;;;;;13.77;12.27;;;;;;;23.11;50.30;95366.38;4992629;28;20114;-68
2021/09/10 00:42:25;;;;;;;14.50;13.20;;;;;;;23.09;50.31;95374.88;4993037;28;20480;-68
2021/09/10 00:44:50;;;;;;;13.65;12.55;;;;;;;23.03;50.50;95371.75;4992899;28;20066;-68
2021/09/10 00:47:16;;;;;;;14.52;13.27;;;;;;;22.93;50.33;95355.38;4992753;28;20697;-67
2021/09/10 00:49:42;;;;;;;13.32;12.23;;;;;;;23.04;50.35;95372.53;4994392;28;20031;-68
2021/09/10 00:52:09;;;;;;;12.77;11.50;;;;;;;22.93;50.79;95369.75;4992612;28;20047;-68
2021/09/10 00:54:35;;;;;;;13.57;12.25;;;;;;;22.87;50.68;95367.72;4992575;28;20092;-68
2021/09/10 00:57:00;;;;;;;12.23;11.25;;;;;;;22.91;50.60;95374.75;4992761;28;20038;-67
2021/09/10 00:59:25;;;;;;;13.23;12.13;;;;;;;22.88;50.48;95386.38;4992188;28;20042;-67
2021/09/10 01:01:51;;;;;;;11.40;10.40;;;;;;;22.80;50.62;95376.59;4992690;28;20054;-67
2021/09/10 01:04:22;;;;;;;12.38;11.23;;;;;;;22.78;50.30;95374.28;4994518;28;20034;-67
2021/09/10 01:06:49;;;;;;;11.95;10.38;;;;;;;22.75;50.16;95377.72;4992252;28;20042;-69
2021/09/10 01:09:15;;;;;;;11.07;10.07;;;;;;;22.76;50.27;95371.13;4991763;28;20044;-68
2021/09/10 01:11:41;;;;;;;12.25;11.00;;;;;;;22.72;50.07;95366.84;4991280;28;20038;-68
2021/09/10 01:14:06;;;;;;;11.20;10.40;;;;;;;22.75;50.19;95385.84;4992292;28;20034;-68
2021/09/10 01:16:32;;;;;;;12.57;11.32;;;;;;;22.72;49.86;95372.25;4994271;28;20026;-68
2021/09/10 01:18:57;;;;;;;12.10;11.00;;;;;;;22.61;50.20;95376.81;4990516;28;20531;-68
2021/09/10 01:21:23;;;;;;;12.35;11.15;;;;;;;22.65;50.11;95381.13;4991718;28;20043;-69
2021/09/10 01:23:48;;;;;;;11.50;10.55;;;;;;;22.60;50.15;95381.47;4992137;28;20636;-68
2021/09/10 01:26:14;;;;;;;12.15;11.02;;;;;;;22.63;50.44;95385.38;4991036;28;20038;-69
2021/09/10 01:28:40;;;;;;;12.20;11.20;;;;;;;22.58;50.14;95387.28;4976108;28;20096;-68
2021/09/10 01:31:05;;;;;;;12.02;11.02;;;;;;;22.59;50.38;95382.63;4992231;28;20034;-68
2021/09/10 01:33:30;;;;;;;11.82;10.93;;;;;;;22.47;50.39;95364.72;4992071;28;20507;-68
2021/09/10 01:35:56;;;;;;;12.60;11.40;;;;;;;22.50;50.14;95368.63;4991656;28;20085;-68
2021/09/10 01:38:22;;;;;;;13.10;11.90;;;;;;;22.52;50.24;95387.97;4991803;28;20038;-68
2021/09/10 01:40:48;;;;;;;12.30;11.25;;;;;;;22.19;50.14;95329.25;4990749;28;20026;-68
2021/09/10 01:43:15;;;;;;;11.88;10.85;;;;;;;22.49;50.62;95389.53;4993724;28;20034;-68
2021/09/10 01:45:40;;;;;;;12.77;11.55;;;;;;;22.48;50.53;95396.09;4992011;28;20497;-68
2021/09/10 01:48:05;;;;;;;12.02;11.02;;;;;;;22.47;50.58;95391.84;4992077;28;20182;-69
2021/09/10 01:50:31;;;;;;;11.80;10.70;;;;;;;22.35;50.74;95381.25;4991750;28;20047;-68
2021/09/10 01:52:56;;;;;;;12.82;11.77;;;;;;;22.41;50.51;95387.88;4991463;28;20080;-68
2021/09/10 01:55:22;;;;;;;11.80;10.80;;;;;;;22.38;50.71;95379.75;4993910;28;20034;-68
2021/09/10 01:57:49;;;;;;;12.23;11.13;;;;;;;22.29;50.60;95372.69;4992079;28;20038;-68
2021/09/10 02:00:16;;;;;;;14.48;12.35;;;;;;;22.38;50.59;95385.16;4991677;28;20047;-68
2021/09/10 02:02:42;;;;;;;12.98;11.95;;;;;;;22.36;50.68;95380.09;4991034;28;20066;-68
2021/09/10 02:05:09;;;;;;;12.25;11.15;;;;;;;22.49;50.54;95386.03;4991127;28;20128;-69
2021/09/10 02:07:35;;;;;;;11.02;9.95;;;;;;;22.49;50.40;95405.00;4992905;28;20033;-68
2021/09/10 02:10:00;;;;;;;12.55;11.55;;;;;;;22.48;50.38;95396.09;4991296;28;20046;-68
2021/09/10 02:12:25;;;;;;;11.35;10.35;;;;;;;22.41;50.07;95390.59;4991232;28;20097;-68
2021/09/10 02:14:51;;;;;;;11.57;10.68;;;;;;;22.41;50.22;95387.13;4991313;28;20042;-68
2021/09/10 02:17:17;;;;;;;11.52;10.52;;;;;;;22.39;50.19;95394.84;4991417;28;20048;-68
2021/09/10 02:19:42;;;;;;;11.65;10.65;;;;;;;22.25;50.04;95368.38;4992623;28;20027;-68
2021/09/10 02:22:08;;;;;;;12.02;10.90;;;;;;;22.39;50.24;95386.72;4990777;28;20042;-68
2021/09/10 02:24:34;;;;;;;11.45;10.32;;;;;;;22.33;50.07;95374.66;4991261;28;20507;-68
2021/09/10 02:26:59;;;;;;;11.40;10.50;;;;;;;22.33;50.05;95386.28;4991059;28;20061;-67
2021/09/10 02:29:24;;;;;;;11.70;10.70;;;;;;;22.27;50.34;95375.00;4990726;28;20716;-68
2021/09/10 02:31:50;;;;;;;11.73;10.82;;;;;;;22.16;50.25;95368.72;4973495;28;20050;-67
2021/09/10 02:34:15;;;;;;;11.30;10.30;;;;;;;22.07;50.48;95357.38;4992875;28;20542;-68
2021/09/10 02:36:40;;;;;;;10.73;9.80;;;;;;;22.10;50.61;95366.66;4990513;28;20400;-68
2021/09/10 02:39:07;;;;;;;11.13;10.27;;;;;;;22.10;50.51;95364.72;4990463;28;20046;-70
2021/09/10 02:41:35;;;;;;;11.75;10.75;;;;;;;22.12;50.42;95367.13;4990928;28;20053;-68
2021/09/10 02:44:03;;;;;;;11.23;10.23;;;;;;;22.17;50.42;95366.78;4991041;28;20034;-68
2021/09/10 02:46:28;;;;;;;11.18;10.18;;;;;;;22.24;50.82;95374.97;4991588;28;20030;-68
2021/09/10 02:48:53;;;;;;;11.80;10.80;;;;;;;22.24;50.56;95373.03;4990458;28;20460;-68
2021/09/10 02:51:19;;;;;;;12.52;11.30;;;;;;;22.40;50.37;95372.00;4990327;28;20063;-68
2021/09/10 02:53:44;;;;;;;11.55;10.52;;;;;;;22.46;50.06;95376.69;4990358;28;20038;-68
2021/09/10 02:56:10;;;;;;;10.27;9.32;;;;;;;22.55;50.05;95368.25;4990527;28;20041;-69
2021/09/10 02:58:35;;;;;;;8.63;8.02;;;;;;;22.65;49.89;95378.41;4992359;28;20101;-68
2021/09/10 03:01:00;;;;;;;11.07;10.18;;;;;;;22.75;49.37;95366.88;4990317;28;20038;-68
2021/09/10 03:03:27;;;;;;;9.70;9.00;;;;;;;22.81;49.24;95364.59;4990834;28;20104;-68
2021/09/10 03:05:53;;;;;;;9.77;8.88;;;;;;;22.93;49.33;95377.09;4990625;28;20039;-68
2021/09/10 03:08:18;;;;;;;10.57;9.55;;;;;;;22.95;49.14;95372.09;4989867;28;20041;-68
2021/09/10 03:10:43;;;;;;;11.32;10.32;;;;;;;22.95;49.07;95378.28;4990083;28;20104;-68
2021/09/10 03:13:09;;;;;;;10.63;9.73;;;;;;;22.91;48.64;95371.28;4992367;28;20061;-68
2021/09/10 03:15:34;;;;;;;11.55;10.23;;;;;;;22.83;48.78;95365.78;4990142;28;20038;-68
2021/09/10 03:18:00;;;;;;;9.75;8.95;;;;;;;22.70;49.23;95358.31;4990095;28;20121;-67
2021/09/10 03:20:25;;;;;;;12.57;11.38;;;;;;;22.61;49.18;95361.34;4989690;28;20034;-68
2021/09/10 03:22:50;;;;;;;12.45;11.48;;;;;;;22.56;49.37;95372.53;4989325;28;20037;-67
2021/09/10 03:25:16;;;;;;;12.00;11.07;;;;;;;22.42;49.29;95356.13;4990589;28;20030;-68
2021/09/10 03:27:41;;;;;;;12.63;11.45;;;;;;;22.38;49.65;95364.25;4990003;28;20757;-67
2021/09/10 03:30:08;;;;;;;12.88;11.70;;;;;;;22.25;49.86;95366.44;4989407;28;20034;-68
2021/09/10 03:32:33;;;;;;;11.50;10.52;;;;;;;22.19;50.04;95362.53;4989799;28;20507;-67
2021/09/10 03:34:58;;;;;;;13.27;12.00;;;;;;;22.11;50.06;95344.66;4989827;28;20030;-68
2021/09/10 03:37:24;;;;;;;13.43;12.40;;;;;;;22.11;50.11;95355.50;4991448;28;20035;-69
2021/09/10 03:39:49;;;;;;;13.25;12.18;;;;;;;22.07;50.31;95357.38;4971717;28;20117;-69
2021/09/10 03:42:15;;;;;;;14.52;13.20;;;;;;;22.08;50.26;95358.91;4989663;28;20153;-68
2021/09/10 03:44:40;;;;;;;12.93;11.80;;;;;;;21.96;50.43;95359.97;4989773;28;20042;-69
2021/09/10 03:47:05;;;;;;;14.02;12.95;;;;;;;21.84;50.78;95341.25;4989722;28;20113;-68
2021/09/10 03:49:34;;;;;;;12.80;11.68;;;;;;;21.90;50.70;95355.25;4991174;28;20022;-68
2021/09/10 03:52:00;;;;;;;14.70;13.50;;;;;;;21.86;50.98;95357.16;4989213;28;20108;-67
2021/09/10 03:54:26;;;;;;;16.75;15.20;;;;;;;21.84;51.11;95357.50;4989192;28;20459;-68
2021/09/10 03:56:51;;;;;;;12.98;12.02;;;;;;;21.75;51.14;95344.28;4989709;28;20050;-68
2021/09/10 03:59:17;;;;;;;13.85;12.50;;;;;;;21.79;50.97;95355.91;4989145;28;20038;-67
2021/09/10 04:01:42;;;;;;;13.23;12.15;;;;;;;21.68;51.46;95346.88;4991261;28;20057;-68
2021/09/10 04:04:08;;;;;;;12.27;11.18;;;;;;;;;;4989193;28;20034;-68
2021/09/10 04:06:33;;;;;;;13.70;12.38;;;;;;;21.61;51.62;95336.00;4989343;28;20042;-68
2021/09/10 04:08:59;;;;;;;16.05;14.50;;;;;;;21.65;51.23;95342.22;4988141;28;20039;-68
2021/09/10 04:11:24;;;;;;;13.27;12.32;;;;;;;21.77;51.21;95347.38;4988137;28;20403;-68
2021/09/10 04:13:49;;;;;;;13.70;12.60;;;;;;;21.83;51.11;95349.75;4987965;28;20469;-68
2021/09/10 04:16:15;;;;;;;13.52;12.45;;;;;;;21.74;50.85;95328.38;4991171;28;20453;-69
2021/09/10 04:18:40;;;;;;;13.43;12.23;;;;;;;21.74;50.94;95336.50;4988636;28;20096;-67
2021/09/10 04:21:05;;;;;;;13.10;11.95;;;;;;;21.75;51.07;95338.88;4989237;28;20377;-68
2021/09/10 04:23:31;;;;;;;14.95;13.70;;;;;;;21.79;50.99;95350.50;4988535;28;20037;-68
2021/09/10 04:25:56;;;;;;;13.57;12.32;;;;;;;21.67;50.92;95342.63;4989158;28;20114;-67
2021/09/10 04:28:22;;;;;;;13.65;12.25;;;;;;;21.74;50.92;95341.91;4991089;28;20365;-68
2021/09/10 04:30:47;;;;;;;14.10;12.85;;;;;;;21.78;50.94;95354.34;4988645;28;20073;-68
2021/09/10 04:33:12;;;;;;;13.25;12.05;;;;;;;21.57;51.14;95326.28;4989001;28;20050;-67
2021/09/10 04:35:38;;;;;;;15.40;13.88;;;;;;;21.64;51.14;95350.69;4989242;28;20077;-68
2021/09/10 04:38:03;;;;;;;14.55;13.13;;;;;;;21.64;51.26;95348.78;4988489;28;20200;-68
2021/09/10 04:40:28;;;;;;;13.90;12.80;;;;;;;21.58;51.48;95347.53;4972910;28;20057;-68
2021/09/10 04:42:54;;;;;;;13.68;12.45;;;;;;;21.51;51.26;95339.34;4988610;28;20173;-68
2021/09/10 04:45:19;;;;;;;15.20;13.80;;;;;;;21.53;51.48;95353.28;4987679;28;20038;-69
2021/09/10 04:47:45;;;;;;;14.55;13.45;;;;;;;21.50;51.43;95340.50;4988780;28;20034;-69
2021/09/10 04:50:10;;;;;;;13.80;12.45;;;;;;;21.57;51.50;95362.25;4988278;28;20507;-69
2021/09/10 04:52:38;;;;;;;13.43;12.25;;;;;;;21.59;51.51;95357.22;4990141;28;20109;-68
2021/09/10 04:55:08;;;;;;;13.27;11.98;;;;;;;21.61;51.16;95354.94;4988634;28;20125;-68
2021/09/10 04:57:34;;;;;;;15.05;13.45;;;;;;;21.55;51.40;95345.59;4988622;28;20042;-68
2021/09/10 04:59:59;;;;;;;14.45;12.10;;;;;;;21.61;51.35;95352.22;4970450;28;20568;-67
2021/09/10 05:02:25;;;;;;;15.40;14.10;;;;;;;21.56;51.49;95339.03;4988629;28;20449;-67
2021/09/10 05:04:50;;;;;;;14.70;13.40;;;;;;;21.66;51.41;95359.25;4988614;28;20022;-67
2021/09/10 05:07:16;;;;;;;14.02;12.57;;;;;;;21.67;51.22;95348.03;4990260;28;20029;-68
2021/09/10 05:09:41;;;;;;;14.27;12.85;;;;;;;21.74;51.24;95352.75;4988252;28;20479;-67
2021/09/10 05:12:06;;;;;;;12.82;11.70;;;;;;;21.77;51.13;95349.31;4988748;28;20042;-69
2021/09/10 05:14:32;;;;;;;13.02;11.82;;;;;;;21.80;51.19;95356.69;4989472;28;20040;-71
2021/09/10 05:16:57;;;;;;;13.20;12.13;;;;;;;21.90;51.09;95355.25;4990926;28;20030;-70
2021/09/10 05:19:22;;;;;;;11.63;10.65;;;;;;;21.94;50.65;95350.66;4993742;28;20026;-69
2021/09/10 05:21:48;;;;;;;11.98;10.98;;;;;;;21.90;50.81;95341.69;4991077;28;20035;-69
2021/09/10 05:24:13;;;;;;;12.00;10.93;;;;;;;22.00;50.61;95354.56;4991686;28;20054;-69
2021/09/10 05:26:38;;;;;;;11.82;10.73;;;;;;;22.14;50.36;95362.88;4992432;28;20402;-69
2021/09/10 05:29:04;;;;;;;11.07;10.07;;;;;;;22.19;50.41;95367.19;4991918;28;20039;-69
2021/09/10 05:31:29;;;;;;;11.30;10.27;;;;;;;22.26;50.07;95359.88;4994181;28;20077;-69
2021/09/10 05:33:55;;;;;;;11.93;10.85;;;;;;;22.22;50.02;95350.97;4991954;28;20511;-69
2021/09/10 05:36:20;;;;;;;10.57;9.32;;;;;;;22.33;49.86;95353.75;4974466;28;20035;-70
2021/09/10 05:38:46;;;;;;;15.00;10.32;;;;;;;22.51;49.65;95378.28;4990075;28;20130;-71
2021/09/10 05:41:11;;;;;;;11.00;10.10;;;;;;;22.54;49.60;95361.28;4990811;28;20117;-75
2021/09/10 05:43:36;;;;;;;11.25;10.35;;;;;;;22.76;49.04;95378.50;4977881;28;20081;-68
2021/09/10 05:46:02;;;;;;;11.70;10.60;;;;;;;22.69;49.18;95359.47;4991800;28;20034;-67
2021/09/10 05:48:27;;;;;;;11.50;10.18;;;;;;;22.84;49.23;95371.97;4990704;28;20673;-67
2021/09/10 05:50:53;;;;;;;11.50;10.38;;;;;;;22.94;48.93;95376.72;4990264;28;20053;-69
2021/09/10 05:53:18;;;;;;;10.23;8.98;;;;;;;23.08;48.65;95381.44;4989744;28;20049;-67
2021/09/10 05:55:44;;;;;;;10.13;9.18;;;;;;;23.16;48.79;95374.91;4975365;28;20480;-67
2021/09/10 05:58:09;;;;;;;11.05;9.82;;;;;;;23.19;48.57;95374.19;4994512;28;20038;-73
2021/09/10 06:00:36;;;;;;;10.05;9.07;;;;;;;23.36;48.27;95380.84;4991241;28;20045;-68
2021/09/10 06:03:02;;;;;;;9.27;8.57;;;;;;;23.40;48.42;95370.78;4973899;28;20086;-68
2021/09/10 06:05:28;;;;;;;9.93;9.02;;;;;;;23.49;48.37;95370.44;4991867;28;20060;-69
2021/09/10 06:07:53;;;;;;;9.95;8.98;;;;;;;23.66;47.80;95385.28;4973834;28;20403;-71
2021/09/10 06:10:18;;;;;;;10.02;9.13;;;;;;;23.69;48.09;95371.69;4993117;28;20018;-73
2021/09/10 06:12:45;;;;;;;10.57;8.30;;;;;;;23.81;47.84;95363.22;4991623;28;20054;-66
2021/09/10 06:15:11;;;;;;;9.68;8.88;;;;;;;23.98;47.48;95378.00;4991567;28;20041;-73
2021/09/10 06:17:37;;;;;;;9.35;8.45;;;;;;;24.11;47.19;95378.44;4991033;28;20034;-71
2021/09/10 06:20:03;;;;;;;12.07;8.25;;;;;;;24.11;47.44;95364.84;4991012;28;20472;-66
2021/09/10 06:22:28;;;;;;;9.60;7.95;;;;;;;24.22;47.11;95360.22;4992645;28;20563;-65
2021/09/10 06:24:54;;;;;;;12.38;8.48;;;;;;;24.32;47.28;95366.81;4990879;28;20510;-67
2021/09/10 06:27:19;;;;;;;11.55;8.27;;;;;;;24.46;47.18;95366.06;4990836;28;20125;-69
2021/09/10 06:29:44;;;;;;;14.50;8.93;;;;;;;24.59;46.79;95378.13;4989254;28;20038;-68
2021/09/10 06:32:10;;;;;;;11.60;8.73;;;;;;;24.61;46.78;95360.25;4973470;28;20045;-74
2021/09/10 06:34:35;;;;;;;11.90;8.27;;;;;;;24.79;46.45;95375.81;4991593;28;20033;-67
2021/09/10 06:37:01;;;;;;;8.32;7.65;;;;;;;24.75;46.48;95359.47;4991080;28;20085;-68
2021/09/10 06:39:26;;;;;;;9.38;7.72;;;;;;;24.94;46.07;95380.06;4972083;28;20058;-66
2021/09/10 06:41:51;;;;;;;8.77;7.88;;;;;;;24.88;46.27;95368.81;4972526;28;20038;-65
2021/09/10 06:44:17;;;;;;;7.32;6.63;;;;;;;24.93;45.90;95366.81;4989489;28;20059;-65
2021/09/10 06:46:42;;;;;;;8.40;7.60;;;;;;;25.10;45.67;95369.56;4992580;28;20115;-64
2021/09/10 06:49:08;;;;;;;8.05;7.35;;;;;;;25.20;45.61;95365.28;4990102;28;20089;-63
2021/09/10 06:51:33;;;;;;;9.80;7.40;;;;;;;25.32;45.15;95370.28;4989032;28;20053;-65
2021/09/10 06:53:59;;;;;;;8.35;7.72;;;;;;;25.41;45.00;95367.94;4989823;28;20049;-65
2021/09/10 06:56:24;;;;;;;8.25;6.93;;;;;;;25.55;44.79;95369.06;4972580;28;20512;-67
2021/09/10 06:58:51;;;;;;;8.55;7.65;;;;;;;25.53;44.74;95368.66;4989962;28;20023;-65
2021/09/10 07:01:16;;;;;;;7.95;7.35;;;;;;;25.33;44.47;95365.63;4992142;28;20033;-65
2021/09/10 07:03:42;;;;;;;7.20;6.68;;;;;;;25.63;44.28;95373.28;4972672;28;20038;-67
2021/09/10 07:06:07;;;;;;;8.98;7.15;;;;;;;25.52;43.80;95376.06;4990019;28;20035;-67
2021/09/10 07:08:33;;;;;;;6.93;6.28;;;;;;;25.82;43.96;95380.25;4989749;28;20038;-67
2021/09/10 07:11:01;;;;;;;6.70;6.13;;;;;;;24.87;44.55;95369.94;4989581;28;20025;-67
2021/09/10 07:13:27;;;;;;;6.65;6.05;;;;;;;25.46;43.79;95382.31;4991919;28;20455;-72
2021/09/10 07:15:52;;;;;;;7.38;6.30;;;;;;;25.82;43.18;95380.25;4972604;28;20035;-66
2021/09/10 07:18:19;;;;;;;8.93;6.25;;;;;;;25.58;43.05;95379.16;4989814;28;20041;-67
2021/09/10 07:20:45;;;;;;;7.30;6.60;;;;;;;25.98;43.02;95380.56;4989670;28;20038;-70
2021/09/10 07:23:10;;;;;;;7.10;6.50;;;;;;;26.04;42.06;95375.47;4989646;28;20041;-70
2021/09/10 07:25:36;;;;;;;7.63;6.32;;;;;;;26.10;42.63;95382.06;4992106;28;20030;-70
2021/09/10 07:28:01;;;;;;;11.50;6.80;;;;;;;26.41;41.93;95380.31;4989980;28;20097;-70
2021/09/10 07:30:27;;;;;;;8.45;6.43;;;;;;;25.29;43.66;95383.94;4989842;28;20028;-71
2021/09/10 07:32:52;;;;;;;7.50;6.82;;;;;;;25.74;42.79;95337.84;4990155;28;20061;-71
2021/09/10 07:35:18;;;;;;;7.53;6.82;;;;;;;26.33;41.83;95379.59;4989588;28;20125;-69
2021/09/10 07:37:45;;;;;;;7.18;6.43;;;;;;;25.65;43.06;95381.88;4991319;28;20577;-71
2021/09/10 07:40:11;;;;;;;7.32;6.72;;;;;;;25.54;42.54;95389.28;4989728;28;20047;-69
2021/09/10 07:42:36;;;;;;;7.40;6.68;;;;;;;25.93;41.96;95379.03;4988258;28;20121;-68
2021/09/10 07:45:02;;;;;;;6.65;6.15;;;;;;;26.62;41.46;95384.88;4989690;28;20462;-69
2021/09/10 07:47:27;;;;;;;7.97;7.03;;;;;;;26.90;40.80;95398.28;4989806;28;20042;-67
2021/09/10 07:49:52;;;;;;;8.30;6.50;;;;;;;26.98;40.75;95376.41;4988927;28;20045;-72
2021/09/10 07:52:18;;;;;;;6.95;6.22;;;;;;;27.16;40.69;95393.41;4991359;28;20026;-69
2021/09/10 07:54:43;;;;;;;7.20;6.22;;;;;;;27.25;40.72;95390.97;4987645;28;20467;-70
2021/09/10 07:57:11;;;;;;;8.95;6.00;;;;;;;25.98;42.69;95393.41;4989222;28;20128;-78
2021/09/10 07:59:36;;;;;;;6.60;6.00;;;;;;;26.69;41.03;95388.31;4988558;28;20046;-68
2021/09/10 08:02:01;;;;;;;13.23;6.70;;;;;;;26.33;41.15;95387.75;4989509;28;20033;-68
2021/09/10 08:04:27;;;;;;;7.30;6.57;;;;;;;26.26;40.89;95396.00;4991184;28;20435;-68
2021/09/10 08:06:52;;;;;;;10.43;6.05;;;;;;;26.88;40.06;95389.72;4989155;28;20034;-68
2021/09/10 08:09:18;;;;;;;7.00;6.30;;;;;;;27.14;40.18;95391.09;4988311;28;20118;-69
2021/09/10 08:11:43;;;;;;;6.22;5.72;;;;;;;26.39;40.04;95391.63;4989532;28;20050;-69
2021/09/10 08:14:10;;;;;;;9.70;6.50;;;;;;;25.80;41.00;95394.28;4989242;28;20475;-66
2021/09/10 08:16:35;;;;;;;5.95;5.55;;;;;;;25.68;40.82;95398.19;4991241;28;20022;-67
2021/09/10 08:19:01;;;;;;;7.05;6.32;;;;;;;26.06;40.76;95379.38;4988761;28;20034;-67
2021/09/10 08:21:26;;;;;;;6.22;5.70;;;;;;;26.74;39.26;95398.03;4988656;28;20038;-68
2021/09/10 08:23:52;;;;;;;6.95;5.80;;;;;;;26.95;39.13;95403.31;4988655;28;20042;-68
2021/09/10 08:26:17;;;;;;;6.93;6.20;;;;;;;25.67;40.21;95404.03;4989082;28;20050;-71
2021/09/10 08:28:43;;;;;;;6.00;5.45;;;;;;;26.35;39.80;95404.50;4990555;28;20034;-67
2021/09/10 08:31:08;;;;;;;5.88;5.43;;;;;;;26.40;40.04;95414.97;4988181;28;20157;-69
2021/09/10 08:33:34;;;;;;;6.18;5.60;;;;;;;27.01;38.82;95403.63;4971320;28;20042;-68
2021/09/10 08:36:01;;;;;;;7.18;6.22;;;;;;;26.90;38.93;95402.97;4988572;28;20516;-69
2021/09/10 08:38:26;;;;;;;6.43;5.93;;;;;;;26.13;40.95;95416.72;4988179;28;20061;-69
2021/09/10 08:40:56;;;;;;;6.13;5.53;;;;;;;27.00;38.23;95412.25;4988272;28;20641;-68
2021/09/10 08:43:23;;;;;;;6.10;5.70;;;;;;;26.36;40.20;95403.34;4990814;28;20569;-68
2021/09/10 08:45:49;;;;;;;6.78;5.32;;;;;;;26.54;40.40;95405.97;4989164;28;20121;-69
2021/09/10 08:48:17;;;;;;;6.70;6.15;;;;;;;26.27;40.76;95424.81;4989148;28;20438;-67
2021/09/10 08:50:42;;;;;;;6.40;5.90;;;;;;;26.62;39.19;95409.44;4992335;28;20196;-68
2021/09/10 08:53:09;;;;;;;6.72;6.07;;;;;;;26.98;38.66;95415.38;4992159;28;20482;-69
2021/09/10 08:55:35;;;;;;;8.25;6.53;;;;;;;27.39;38.55;95431.81;4994488;28;20666;-76
2021/09/10 08:58:00;;;;;;;8.60;6.22;;;;;;;27.80;37.57;95411.09;4993122;28;20042;-66
2021/09/10 09:00:31;;;;;;;6.78;6.13;;;;;;;28.14;37.37;95420.03;4990668;28;20104;-68
2021/09/10 09:03:01;;;;;;;6.70;5.38;;;;;;;27.22;39.11;95427.28;4975041;28;20073;-68
2021/09/10 09:05:28;;;;;;;6.90;6.20;;;;;;;27.08;39.12;95427.44;4992550;28;20034;-68
2021/09/10 09:08:14;;;;;;;9.20;5.50;;;;;;;27.54;39.37;95428.91;4992138;28;20027;-68
2021/09/10 09:11:01;;;;;;;6.47;5.88;;;;;;;28.08;37.59;95420.91;4986943;28;20045;-67
2021/09/10 09:13:38;;;;;;;6.57;5.57;;;;;;;27.85;38.07;95418.84;4992679;28;20491;-67
2021/09/10 09:16:18;;;;;;;8.98;5.30;;;;;;;28.57;37.90;95418.69;4992404;28;20038;-67
2021/09/10 09:18:45;;;;;;;6.30;5.82;;;;;;;28.80;37.04;95405.03;4991962;28;20069;-67
2021/09/10 09:21:11;;;;;;;5.97;5.38;;;;;;;28.82;36.46;95385.44;4992063;28;20499;-68
2021/09/10 09:23:37;;;;;;;6.03;5.47;;;;;;;29.14;36.18;95407.63;4989959;28;20125;-68
2021/09/10 09:26:16;;;;;;;6.50;5.72;;;;;;;29.21;35.77;95412.97;4991959;28;20160;-68
2021/09/10 09:28:42;;;;;;;6.95;5.55;;;;;;;29.26;35.42;95417.97;4976102;28;20030;-67
2021/09/10 09:31:09;;;;;;;7.03;5.72;;;;;;;29.38;35.54;95410.31;4991932;28;20045;-67
2021/09/10 09:33:41;;;;;;;9.55;6.72;;;;;;;29.41;35.40;95412.22;4992069;28;20043;-69
2021/09/10 09:36:19;;;;;;;6.15;5.53;;;;;;;29.35;34.63;95409.22;4974734;28;20051;-66
2021/09/10 09:38:45;;;;;;;6.30;5.70;;;;;;;29.37;34.52;95415.03;4991547;28;20038;-68
2021/09/10 09:41:14;;;;;;;5.68;5.13;;;;;;;29.36;34.57;95418.19;4991901;28;20041;-67
2021/09/10 09:43:45;;;;;;;6.10;5.60;;;;;;;28.99;35.01;95412.56;4994267;28;20027;-67
2021/09/10 09:46:14;;;;;;;8.00;5.70;;;;;;;28.78;36.00;95407.41;4992834;28;20132;-75
2021/09/10 09:48:44;;;;;;;6.50;5.85;;;;;;;28.96;35.57;95410.66;4991675;28;20041;-74
2021/09/10 09:51:11;;;;;;;7.50;5.53;;;;;;;29.19;35.50;95401.66;4974465;28;20031;-67
2021/09/10 09:53:39;;;;;;;6.07;5.50;;;;;;;29.11;34.97;95402.19;4994076;28;20061;-72
2021/09/10 09:56:07;;;;;;;5.93;5.30;;;;;;;29.22;35.07;95400.81;4974477;28;20037;-66
2021/09/10 09:58:34;;;;;;;6.65;6.15;;;;;;;27.83;37.48;95410.25;4975985;28;20096;-70
2021/09/10 10:01:00;;;;;;;6.80;6.03;;;;;;;26.82;39.10;95415.91;4990505;28;20043;-65
2021/09/10 10:03:25;;;;;;;6.68;6.07;;;;;;;27.30;38.94;95397.94;4991729;28;20550;-66
2021/09/10 10:06:03;;;;;;;6.45;5.78;;;;;;;28.35;37.53;95415.47;4991963;28;20045;-68
2021/09/10 10:08:38;;;;;;;7.05;6.30;;;;;;;28.77;36.49;95405.88;4990852;28;20047;-65
2021/09/10 10:11:13;;;;;;;6.18;5.63;;;;;;;28.65;36.64;95403.69;4991217;28;20014;-65
2021/09/10 10:13:39;;;;;;;6.70;6.10;;;;;;;28.43;36.10;95401.28;4993362;28;20023;-65
2021/09/10 10:16:04;;;;;;;7.28;6.57;;;;;;;27.12;38.37;95389.91;4990816;28;20034;-64
2021/09/10 10:18:48;;;;;;;6.68;5.95;;;;;;;28.19;37.31;95394.16;4990787;28;20672;-65
2021/09/10 10:21:14;;;;;;;7.18;6.43;;;;;;;27.19;38.54;95387.91;4991065;28;20030;-66
2021/09/10 10:23:45;;;;;;;6.50;5.90;;;;;;;28.41;36.35;95395.47;4989209;28;20042;-66
2021/09/10 10:26:32;;;;;;;6.55;5.85;;;;;;;29.05;36.02;95387.44;4973504;28;20448;-65
2021/09/10 10:29:09;;;;;;;7.13;6.43;;;;;;;29.21;35.05;95398.50;4990633;28;20038;-65
2021/09/10 10:32:01;;;;;;;6.65;6.05;;;;;;;29.39;34.78;95392.72;4992832;28;20030;-65
2021/09/10 10:34:29;;;;;;;7.70;6.60;;;;;;;29.71;34.22;95395.63;4973775;28;20050;-65
2021/09/10 10:36:55;;;;;;;6.93;6.32;;;;;;;29.85;33.99;95386.34;4990899;28;20042;-67
2021/09/10 10:39:29;;;;;;;6.47;5.88;;;;;;;29.95;33.87;95379.88;4972131;28;20042;-71
2021/09/10 10:42:06;;;;;;;6.57;5.97;;;;;;;30.04;33.57;95384.75;4990704;28;20665;-69
2021/09/10 10:44:34;;;;;;;7.13;6.45;;;;;;;29.08;34.75;95381.13;4990779;28;20038;-68
2021/09/10 10:47:06;;;;;;;7.50;6.75;;;;;;;29.09;35.08;95383.44;4990615;28;20046;-66
2021/09/10 10:49:49;;;;;;;9.52;6.32;;;;;;;28.79;36.05;95365.16;4992090;28;20018;-66
2021/09/10 10:52:38;;;;;;;7.47;6.60;;;;;;;29.09;34.62;95375.22;4990783;28;20514;-66
2021/09/10 10:55:21;;;;;;;8.93;6.75;;;;;;;29.73;34.32;95381.50;4972133;28;20377;-68
2021/09/10 10:57:54;;;;;;;6.85;6.20;;;;;;;30.14;33.31;95372.06;4984390;28;20525;-68
2021/09/10 11:00:28;;;;;;;8.35;7.15;;;;;;;28.28;36.59;95369.81;4989807;28;20137;-67
2021/09/10 11:03:18;;;;;;;7.32;6.55;;;;;;;28.78;35.73;95371.81;4990082;28;20649;-68
2021/09/10 11:05:45;;;;;;;8.32;6.57;;;;;;;28.74;35.08;95368.38;4989935;28;20047;-67
2021/09/10 11:08:12;;;;;;;7.72;7.13;;;;;;;27.88;36.80;95375.03;4990052;28;20058;-67
2021/09/10 11:10:37;;;;;;;7.47;6.88;;;;;;;28.19;36.34;95375.03;4991020;28;20027;-71
2021/09/10 11:13:03;;;;;;;7.47;6.70;;;;;;;29.18;34.63;95352.78;4988948;28;20057;-71
2021/09/10 11:15:31;;;;;;;7.43;6.70;;;;;;;29.38;33.80;95352.78;4989972;28;20046;-70
2021/09/10 11:18:01;;;;;;;7.22;6.53;;;;;;;28.42;35.39;95369.66;4989678;28;20030;-69
2021/09/10 11:20:34;;;;;;;6.97;6.32;;;;;;;28.74;35.36;95358.19;4989379;28;20068;-69
2021/09/10 11:23:00;;;;;;;8.05;6.40;;;;;;;28.38;36.12;95363.44;4990240;28;20050;-70